Time;durP1;ratioP1;P1;durP2;ratioP2;P2;SDS_P1;SDS_P2;PMS_P1;PMS_P2;Temp;Humidity;BMP_temperature;BMP_pressure;BME280_temperature;BME280_humidity;BME280_pressure;Samples;Min_cycle;Max_cycle;Signal;HPM_P1;HPM_P2
2022/07/09 00:00:30;;;;;;;18.48;6.55;;;;;;;17.83;72.66;102372.81;5071990;28;20429;-52
2022/07/09 00:02:57;;;;;;;14.45;6.25;;;;;;;17.78;73.03;102369.75;5072418;28;20072;-52
2022/07/09 00:05:24;;;;;;;14.63;6.32;;;;;;;17.75;73.37;102367.38;5066767;28;20064;-50
2022/07/09 00:07:51;;;;;;;16.30;6.28;;;;;;;17.71;73.21;102363.34;5071697;28;20375;-52
2022/07/09 00:10:19;;;;;;;16.98;6.43;;;;;;;17.65;73.46;102359.47;5070432;28;20052;-50
2022/07/09 00:12:47;;;;;;;13.98;6.20;;;;;;;17.71;73.34;102367.91;5071556;28;20425;-51
2022/07/09 00:15:13;;;;;;;16.75;6.50;;;;;;;17.68;73.62;102365.53;5071796;28;20440;-49
2022/07/09 00:17:40;;;;;;;18.15;6.57;;;;;;;17.69;73.47;102361.84;5072125;28;20045;-50
2022/07/09 00:20:07;;;;;;;21.70;6.80;;;;;;;17.69;73.90;102361.84;5071934;28;20547;-48
2022/07/09 00:22:34;;;;;;;17.40;6.28;;;;;;;17.65;73.93;102364.84;5071903;28;20405;-51
2022/07/09 00:25:01;;;;;;;15.88;6.88;;;;;;;17.55;74.11;102356.06;5071868;28;20485;-49
2022/07/09 00:27:28;;;;;;;23.88;7.15;;;;;;;17.56;74.76;102354.25;5070903;28;20184;-50
2022/07/09 00:29:54;;;;;;;23.05;6.65;;;;;;;17.54;74.86;102353.56;5072024;28;20048;-51
2022/07/09 00:32:21;;;;;;;19.65;7.00;;;;;;;17.54;74.87;102349.03;5069971;28;20378;-52
2022/07/09 00:34:48;;;;;;;23.40;7.15;;;;;;;17.52;75.44;102348.38;5072035;28;20517;-52
2022/07/09 00:37:14;;;;;;;17.45;7.20;;;;;;;17.45;75.34;102353.53;5072105;28;20103;-52
2022/07/09 00:39:41;;;;;;;18.15;6.97;;;;;;;17.45;75.30;102352.69;5071929;28;20052;-53
2022/07/09 00:42:09;;;;;;;13.35;6.50;;;;;;;17.35;75.13;102350.09;5071953;28;20426;-53
2022/07/09 00:44:37;;;;;;;19.77;6.78;;;;;;;17.36;75.38;102346.44;5072000;28;20055;-50
2022/07/09 00:47:06;;;;;;;18.75;7.43;;;;;;;17.38;75.65;102343.59;5072030;28;20098;-48
2022/07/09 00:49:39;;;;;;;15.68;7.18;;;;;;;17.36;76.12;102342.94;5071857;28;20052;-50
2022/07/09 00:52:09;;;;;;;17.20;6.93;;;;;;;17.33;76.67;102335.19;5072280;28;20041;-52
2022/07/09 00:54:37;;;;;;;16.67;6.95;;;;;;;17.25;76.74;102336.00;5071948;28;20053;-51
2022/07/09 00:57:07;;;;;;;15.85;6.93;;;;;;;17.20;76.59;102330.25;5071688;28;20126;-50
2022/07/09 00:59:35;;;;;;;17.20;6.88;;;;;;;17.13;77.07;102337.25;5071795;28;20547;-50
2022/07/09 01:02:02;;;;;;;15.23;6.85;;;;;;;17.08;77.39;102329.69;5071142;28;20437;-50
2022/07/09 01:04:30;;;;;;;18.00;7.35;;;;;;;17.12;77.05;102330.19;5071602;28;20037;-50
2022/07/09 01:06:57;;;;;;;16.85;6.80;;;;;;;17.09;76.71;102328.69;5071822;28;20383;-49
2022/07/09 01:09:26;;;;;;;15.93;7.50;;;;;;;17.11;76.60;102334.72;5070413;28;20044;-51
2022/07/09 01:11:53;;;;;;;14.23;7.47;;;;;;;17.11;76.80;102331.22;5071479;28;20048;-50
2022/07/09 01:14:22;;;;;;;18.42;7.32;;;;;;;17.09;76.96;102331.38;5071595;28;20055;-51
2022/07/09 01:16:58;;;;;;;20.05;7.47;;;;;;;17.11;76.85;102328.53;5071645;28;20063;-50
2022/07/09 01:19:24;;;;;;;17.05;7.22;;;;;;;16.98;76.68;102337.84;5071391;28;20040;-51
2022/07/09 01:21:51;;;;;;;17.83;7.32;;;;;;;16.99;76.75;102336.00;5071412;28;20079;-49
2022/07/09 01:24:18;;;;;;;16.67;7.47;;;;;;;16.96;76.81;102330.97;5071577;28;20076;-49
2022/07/09 01:26:45;;;;;;;19.55;7.55;;;;;;;16.97;76.61;102322.78;5071670;28;20105;-49
2022/07/09 01:29:12;;;;;;;16.77;8.80;;;;;;;16.98;76.49;102335.16;5072141;28;20059;-51
2022/07/09 01:31:39;;;;;;;23.50;8.18;;;;;;;16.96;76.68;102325.59;5075014;28;20127;-49
2022/07/09 01:34:06;;;;;;;21.80;8.55;;;;;;;16.98;76.76;102328.97;5074470;28;20068;-51
2022/07/09 01:36:33;;;;;;;18.83;8.52;;;;;;;16.96;77.13;102328.28;5090551;28;20114;-52
2022/07/09 01:39:00;;;;;;;21.90;8.07;;;;;;;16.94;77.37;102324.94;5074817;28;20050;-53
2022/07/09 01:41:27;;;;;;;18.52;8.13;;;;;;;16.81;76.86;102320.78;5075180;28;20049;-51
2022/07/09 01:43:53;;;;;;;18.35;8.02;;;;;;;16.88;77.06;102318.31;5090361;28;20052;-49
2022/07/09 01:46:20;;;;;;;18.42;8.43;;;;;;;16.91;77.31;102319.88;5075061;28;20040;-52
2022/07/09 01:48:47;;;;;;;20.13;8.50;;;;;;;16.92;77.26;102316.19;5090276;28;20044;-51
2022/07/09 01:51:13;;;;;;;18.73;8.93;;;;;;;16.91;77.36;102315.34;5075052;28;20057;-50
2022/07/09 01:53:40;;;;;;;22.27;9.10;;;;;;;16.93;77.11;102316.03;5074771;28;20044;-52
2022/07/09 01:56:09;;;;;;;22.58;9.60;;;;;;;16.96;77.54;102310.34;5074869;28;20071;-50
2022/07/09 01:58:36;;;;;;;29.35;11.75;;;;;;;17.23;75.27;102312.00;5074593;28;20048;-49
2022/07/09 02:01:03;;;;;;;26.15;12.80;;;;;;;17.19;75.33;102309.78;5074478;28;20105;-52
2022/07/09 02:03:30;;;;;;;21.30;11.63;;;;;;;17.23;75.05;102311.19;5089606;28;20041;-49
2022/07/09 02:05:57;;;;;;;23.23;11.30;;;;;;;17.23;75.04;102301.28;5070978;28;20075;-52
2022/07/09 02:08:24;;;;;;;23.58;12.23;;;;;;;17.24;75.38;102302.94;5057112;28;20502;-51
2022/07/09 02:10:50;;;;;;;22.00;11.60;;;;;;;17.23;75.41;102303.97;5054209;28;20067;-52
2022/07/09 02:13:18;;;;;;;25.08;11.73;;;;;;;17.24;75.79;102300.28;5053773;28;20059;-50
2022/07/09 02:15:45;;;;;;;23.88;11.38;;;;;;;17.24;75.41;102296.75;5054199;28;20045;-49
2022/07/09 02:18:12;;;;;;;28.67;12.18;;;;;;;17.21;74.99;102294.41;5054230;28;20056;-52
2022/07/09 02:20:39;;;;;;;21.88;12.02;;;;;;;17.25;74.95;102288.56;5053000;28;20049;-50
2022/07/09 02:23:07;;;;;;;23.40;11.40;;;;;;;17.25;75.62;102288.56;5053997;28;20052;-49
2022/07/09 02:25:34;;;;;;;20.35;11.70;;;;;;;17.19;75.36;102288.34;5068452;28;20405;-50
2022/07/09 02:28:01;;;;;;;20.42;11.55;;;;;;;17.20;75.63;102287.34;5073998;28;20048;-53
2022/07/09 02:30:28;;;;;;;25.65;12.65;;;;;;;17.20;76.39;102290.03;5072299;28;20060;-50
2022/07/09 02:32:55;;;;;;;32.80;11.63;;;;;;;17.26;76.30;102286.69;5074174;28;20049;-48
2022/07/09 02:35:22;;;;;;;26.75;12.85;;;;;;;17.16;76.66;102292.19;5073959;28;20046;-51
2022/07/09 02:37:49;;;;;;;26.92;12.60;;;;;;;17.15;76.62;102295.03;5073955;28;20044;-51
2022/07/09 02:40:15;;;;;;;25.33;12.73;;;;;;;17.08;76.54;102293.00;5072487;28;20098;-53
2022/07/09 02:42:42;;;;;;;30.33;12.70;;;;;;;17.03;77.00;102289.97;5074030;28;20516;-50
2022/07/09 02:45:09;;;;;;;27.98;13.43;;;;;;;17.03;77.04;102287.28;5073793;28;20041;-51
2022/07/09 02:47:36;;;;;;;24.13;12.95;;;;;;;16.98;77.16;102289.59;5073562;28;20044;-51
2022/07/09 02:50:02;;;;;;;27.40;14.15;;;;;;;16.95;77.60;102289.91;5073684;28;20040;-48
2022/07/09 02:52:29;;;;;;;28.23;14.70;;;;;;;16.91;77.93;102285.84;5073797;28;20072;-50
2022/07/09 02:54:56;;;;;;;29.70;14.07;;;;;;;17.00;78.10;102290.25;5073441;28;20070;-51
2022/07/09 02:57:22;;;;;;;34.67;15.68;;;;;;;17.03;77.88;102294.50;5073417;28;20052;-51
2022/07/09 02:59:49;;;;;;;33.55;17.30;;;;;;;17.11;77.53;102283.78;5072340;28;20048;-49
2022/07/09 03:02:16;;;;;;;28.60;16.40;;;;;;;17.06;77.91;102276.25;5060628;28;20487;-49
2022/07/09 03:04:42;;;;;;;27.70;15.15;;;;;;;16.97;78.36;102277.19;5072860;28;20044;-50
2022/07/09 03:07:09;;;;;;;28.63;15.10;;;;;;;16.87;78.60;102279.97;5088898;28;20059;-51
2022/07/09 03:09:36;;;;;;;33.67;17.20;;;;;;;16.98;78.24;102283.41;5073142;28;20051;-50
2022/07/09 03:12:03;;;;;;;27.00;16.17;;;;;;;16.81;78.74;102275.22;5073358;28;20049;-50
2022/07/09 03:14:30;;;;;;;28.65;15.57;;;;;;;16.85;79.30;102279.28;5073235;28;20106;-51
2022/07/09 03:16:57;;;;;;;25.83;16.30;;;;;;;16.91;79.15;102282.34;5088014;28;20068;-52
2022/07/09 03:19:24;;;;;;;40.38;17.08;;;;;;;16.80;79.21;102276.22;5088625;28;20051;-52
2022/07/09 03:21:51;;;;;;;29.75;16.10;;;;;;;16.73;79.35;102282.38;5088336;28;20064;-51
2022/07/09 03:24:18;;;;;;;29.52;15.45;;;;;;;16.77;79.33;102281.91;5073110;28;20098;-50
2022/07/09 03:26:45;;;;;;;31.63;15.73;;;;;;;16.77;79.52;102289.09;5072639;28;20044;-48
2022/07/09 03:29:12;;;;;;;28.70;15.68;;;;;;;16.79;79.77;102271.00;5072774;28;20044;-51
2022/07/09 03:31:39;;;;;;;29.80;16.70;;;;;;;16.75;79.92;102277.69;5072402;28;20107;-50
2022/07/09 03:34:06;;;;;;;26.70;16.73;;;;;;;16.78;79.86;102272.03;5072730;28;20502;-51
2022/07/09 03:36:32;;;;;;;28.58;16.58;;;;;;;16.82;79.56;102270.69;5072668;28;20041;-50
2022/07/09 03:38:59;;;;;;;31.88;17.35;;;;;;;16.65;80.41;102275.94;5072723;28;20052;-51
2022/07/09 03:41:26;;;;;;;31.77;16.95;;;;;;;16.65;80.51;102272.44;5072946;28;20056;-51
2022/07/09 03:43:52;;;;;;;36.38;18.40;;;;;;;16.58;80.62;102271.38;5072356;28;20041;-51
2022/07/09 03:46:19;;;;;;;35.17;17.65;;;;;;;16.66;80.32;102264.25;5072741;28;20048;-52
2022/07/09 03:48:48;;;;;;;32.92;17.98;;;;;;;16.63;80.82;102269.91;5072420;28;20048;-51
2022/07/09 03:51:15;;;;;;;34.33;18.17;;;;;;;16.69;80.76;102268.44;5088292;28;20074;-48
2022/07/09 03:53:42;;;;;;;37.75;19.45;;;;;;;16.79;80.50;102276.38;5072104;28;20093;-49
2022/07/09 03:56:09;;;;;;;33.75;17.77;;;;;;;16.72;80.66;102278.84;5072612;28;20045;-52
2022/07/09 03:58:37;;;;;;;33.78;19.08;;;;;;;16.68;81.00;102283.69;5072010;28;20505;-51
2022/07/09 04:01:04;;;;;;;32.42;20.40;;;;;;;16.72;80.82;102267.28;5072308;28;20102;-50
2022/07/09 04:03:31;;;;;;;32.70;19.33;;;;;;;16.70;80.94;102259.41;5071739;28;20044;-52
2022/07/09 04:05:57;;;;;;;35.70;20.02;;;;;;;16.75;80.96;102266.97;5072340;28;20045;-49
2022/07/09 04:08:24;;;;;;;42.05;20.05;;;;;;;16.89;80.74;102277.13;5059894;28;20048;-49
2022/07/09 04:10:51;;;;;;;30.75;19.45;;;;;;;16.96;80.18;102274.69;5052139;28;20103;-50
2022/07/09 04:13:17;;;;;;;33.38;19.60;;;;;;;16.96;80.43;102272.00;5051699;28;20095;-51
2022/07/09 04:15:45;;;;;;;30.15;20.50;;;;;;;16.97;80.00;102269.16;5051913;28;20067;-50
2022/07/09 04:18:15;;;;;;;34.90;19.30;;;;;;;16.96;80.34;102272.00;5052234;28;20053;-49
2022/07/09 04:20:42;;;;;;;33.42;20.55;;;;;;;17.10;79.48;102273.22;5051942;28;20122;-50
2022/07/09 04:23:08;;;;;;;34.33;20.55;;;;;;;17.08;79.59;102276.91;5051950;28;20073;-50
2022/07/09 04:25:35;;;;;;;38.33;20.88;;;;;;;17.01;79.83;102275.88;5066739;28;20044;-51
2022/07/09 04:28:02;;;;;;;36.33;21.40;;;;;;;16.86;80.78;102275.63;5072191;28;20517;-50
2022/07/09 04:30:29;;;;;;;34.40;21.35;;;;;;;16.84;81.32;102279.44;5071988;28;20048;-50
2022/07/09 04:32:56;;;;;;;37.97;22.17;;;;;;;16.85;81.27;102276.63;5072155;28;20490;-51
2022/07/09 04:35:23;;;;;;;39.30;23.08;;;;;;;17.08;80.01;102282.28;5071342;28;20127;-49
2022/07/09 04:37:50;;;;;;;38.58;22.23;;;;;;;17.03;80.29;102273.03;5071656;28;20466;-50
2022/07/09 04:40:17;;;;;;;38.08;22.00;;;;;;;17.05;80.48;102273.72;5071573;28;20418;-49
2022/07/09 04:42:43;;;;;;;37.08;22.13;;;;;;;16.94;80.87;102277.50;5072118;28;20056;-51
2022/07/09 04:45:11;;;;;;;39.25;22.90;;;;;;;16.84;81.22;102284.81;5071878;28;20126;-52
2022/07/09 04:47:37;;;;;;;38.78;22.75;;;;;;;16.95;80.83;102289.91;5072051;28;20049;-50
2022/07/09 04:50:04;;;;;;;40.17;22.65;;;;;;;17.00;80.45;102287.59;5071767;28;20044;-50
2022/07/09 04:52:31;;;;;;;41.58;22.38;;;;;;;16.77;81.13;102281.91;5072074;28;20094;-49
2022/07/09 04:54:58;;;;;;;36.85;21.38;;;;;;;16.94;80.73;102282.88;5071685;28;20127;-52
2022/07/09 04:57:24;;;;;;;33.70;20.88;;;;;;;16.88;81.01;102288.84;5071751;28;20094;-49
2022/07/09 04:59:51;;;;;;;38.97;21.33;;;;;;;16.89;81.00;102277.97;5071415;28;20037;-50
2022/07/09 05:02:18;;;;;;;38.75;20.67;;;;;;;16.87;81.51;102281.81;5071788;28;20066;-50
2022/07/09 05:04:45;;;;;;;35.22;20.40;;;;;;;16.95;80.83;102281.84;5073011;28;20071;-50
2022/07/09 05:07:11;;;;;;;34.63;20.30;;;;;;;16.93;81.08;102281.19;5075607;28;20090;-54
2022/07/09 05:09:38;;;;;;;42.70;20.27;;;;;;;17.00;81.25;102276.88;5091239;28;20127;-52
2022/07/09 05:12:05;;;;;;;30.25;20.60;;;;;;;17.09;80.11;102280.44;5075571;28;20079;-53
2022/07/09 05:14:31;;;;;;;32.72;20.73;;;;;;;17.09;79.73;102280.44;5075375;28;20055;-51
2022/07/09 05:16:58;;;;;;;35.83;20.75;;;;;;;17.00;80.77;102284.06;5075403;28;20068;-51
2022/07/09 05:19:26;;;;;;;34.80;21.67;;;;;;;16.96;80.90;102286.22;5074925;28;20044;-49
2022/07/09 05:21:53;;;;;;;44.80;22.38;;;;;;;16.91;81.22;102285.84;5075028;28;20552;-51
2022/07/09 05:24:19;;;;;;;44.22;23.38;;;;;;;16.97;81.10;102287.06;5074939;28;20427;-50
2022/07/09 05:26:46;;;;;;;42.85;23.67;;;;;;;16.85;81.93;102289.19;5074852;28;20045;-50
2022/07/09 05:29:13;;;;;;;42.42;24.02;;;;;;;16.86;82.11;102297.06;5075238;28;20056;-55
2022/07/09 05:31:40;;;;;;;50.58;27.00;;;;;;;17.03;80.95;102289.13;5073306;28;20118;-50
2022/07/09 05:34:07;;;;;;;51.80;26.30;;;;;;;17.03;80.91;102295.31;5075004;28;20051;-53
2022/07/09 05:36:34;;;;;;;46.00;26.25;;;;;;;17.08;80.60;102295.69;5073720;28;20047;-52
2022/07/09 05:39:02;;;;;;;43.45;25.70;;;;;;;17.05;81.26;102297.84;5074283;28;20048;-52
2022/07/09 05:41:29;;;;;;;47.83;26.55;;;;;;;17.07;80.94;102301.22;5075153;28;20056;-53
2022/07/09 05:43:55;;;;;;;54.80;26.30;;;;;;;17.04;81.42;102293.47;5074930;28;20046;-54
2022/07/09 05:46:22;;;;;;;48.38;26.67;;;;;;;17.24;80.47;102296.75;5074808;28;20044;-52
2022/07/09 05:48:49;;;;;;;43.92;25.52;;;;;;;17.17;80.88;102296.56;5074602;28;20519;-54
2022/07/09 05:51:16;;;;;;;45.75;26.30;;;;;;;17.08;81.72;102293.00;5075192;28;20055;-52
2022/07/09 05:53:43;;;;;;;42.83;26.77;;;;;;;17.10;82.34;102298.22;5074818;28;20090;-52
2022/07/09 05:56:10;;;;;;;49.22;27.38;;;;;;;17.18;81.92;102298.25;5074663;28;20090;-52
2022/07/09 05:58:37;;;;;;;45.95;26.48;;;;;;;17.08;82.00;102294.81;5074350;28;20045;-52
2022/07/09 06:01:06;;;;;;;47.40;26.55;;;;;;;17.15;82.16;102287.81;5074128;28;20043;-54
2022/07/09 06:03:32;;;;;;;48.28;27.63;;;;;;;17.24;81.59;102294.91;5074092;28;20041;-53
2022/07/09 06:05:59;;;;;;;48.03;27.73;;;;;;;17.36;81.47;102300.84;5074384;28;20084;-52
2022/07/09 06:08:26;;;;;;;48.20;28.92;;;;;;;17.52;80.60;102291.16;5076340;28;20048;-52
2022/07/09 06:10:53;;;;;;;49.70;28.05;;;;;;;17.66;80.06;102287.84;5074198;28;20048;-52
2022/07/09 06:13:19;;;;;;;43.45;26.10;;;;;;;17.45;81.24;102285.63;5073854;28;20045;-51
2022/07/09 06:15:46;;;;;;;45.22;26.27;;;;;;;17.42;82.00;102294.00;5073528;28;20397;-53
2022/07/09 06:18:13;;;;;;;47.22;25.67;;;;;;;17.61;81.05;102290.22;5074256;28;20059;-48
2022/07/09 06:20:41;;;;;;;46.65;26.55;;;;;;;17.80;79.56;102281.88;5073880;28;20152;-49
2022/07/09 06:23:08;;;;;;;48.67;25.60;;;;;;;17.61;80.66;102279.47;5073865;28;20052;-52
2022/07/09 06:25:35;;;;;;;50.95;25.83;;;;;;;17.74;81.11;102277.16;5073435;28;20094;-52
2022/07/09 06:28:01;;;;;;;42.72;24.88;;;;;;;17.73;80.26;102282.69;5089615;28;20071;-50
2022/07/09 06:30:28;;;;;;;47.85;25.00;;;;;;;17.91;79.77;102288.78;5072999;28;20143;-50
2022/07/09 06:32:55;;;;;;;50.00;26.00;;;;;;;18.13;78.52;102278.41;5073916;28;20063;-49
2022/07/09 06:35:21;;;;;;;45.83;25.80;;;;;;;18.06;78.72;102280.09;5073265;28;20405;-50
2022/07/09 06:37:48;;;;;;;44.65;25.50;;;;;;;18.16;78.27;102280.78;5074049;28;20124;-49
2022/07/09 06:40:15;;;;;;;49.90;25.02;;;;;;;18.15;78.01;102279.09;5073470;28;20049;-50
2022/07/09 06:42:42;;;;;;;47.67;25.30;;;;;;;18.27;76.81;102269.69;5073816;28;20056;-55
2022/07/09 06:45:18;;;;;;;45.53;24.60;;;;;;;18.21;76.40;102279.28;5073598;28;20063;-51
2022/07/09 06:47:44;;;;;;;48.00;22.40;;;;;;;18.03;77.03;102265.16;5073875;28;20433;-49
2022/07/09 06:50:11;;;;;;;42.67;21.92;;;;;;;18.17;75.44;102272.56;5074414;28;20477;-51
2022/07/09 06:52:38;;;;;;;44.85;21.35;;;;;;;18.21;76.41;102279.28;5094007;28;20055;-50
2022/07/09 06:55:05;;;;;;;46.55;21.02;;;;;;;18.13;76.14;102279.25;5093924;28;20394;-51
2022/07/09 06:57:31;;;;;;;39.55;19.45;;;;;;;18.15;75.37;102277.25;5093737;28;20486;-51
2022/07/09 06:59:58;;;;;;;40.75;18.10;;;;;;;18.29;74.33;102282.97;5093704;28;20502;-51
2022/07/09 07:02:25;;;;;;;36.17;16.50;;;;;;;18.54;71.73;102273.88;5093371;28;20444;-51
2022/07/09 07:04:51;;;;;;;33.20;16.33;;;;;;;18.52;71.86;102278.59;5092833;28;20048;-51
2022/07/09 07:07:18;;;;;;;33.03;14.30;;;;;;;18.42;71.90;102268.00;5093117;28;20584;-51
2022/07/09 07:09:45;;;;;;;36.13;14.82;;;;;;;18.59;71.10;102270.69;5072335;28;20091;-50
2022/07/09 07:12:11;;;;;;;35.55;14.70;;;;;;;18.46;72.97;102273.88;5073093;28;20048;-50
2022/07/09 07:14:38;;;;;;;30.48;14.27;;;;;;;18.38;72.46;102272.03;5072934;28;20087;-50
2022/07/09 07:17:05;;;;;;;29.45;13.20;;;;;;;18.76;69.83;102272.34;5072936;28;20044;-52
2022/07/09 07:19:31;;;;;;;29.98;13.85;;;;;;;18.69;70.10;102275.88;5072831;28;20090;-49
2022/07/09 07:21:59;;;;;;;36.28;14.07;;;;;;;18.61;71.13;102279.44;5072613;28;20502;-50
2022/07/09 07:24:26;;;;;;;29.35;13.32;;;;;;;18.65;71.21;102275.38;5072813;28;20552;-50
2022/07/09 07:26:53;;;;;;;29.15;12.80;;;;;;;18.69;71.67;102274.03;5072348;28;20098;-50
2022/07/09 07:29:20;;;;;;;27.80;11.18;;;;;;;18.98;69.06;102278.03;5072930;28;20559;-49
2022/07/09 07:31:47;;;;;;;23.38;9.82;;;;;;;18.80;69.06;102279.03;5072785;28;20044;-51
2022/07/09 07:34:13;;;;;;;23.77;9.88;;;;;;;18.80;68.90;102284.41;5071978;28;20150;-50
2022/07/09 07:36:42;;;;;;;22.27;9.48;;;;;;;18.88;69.21;102278.25;5072160;28;20452;-52
2022/07/09 07:39:10;;;;;;;24.02;9.65;;;;;;;19.22;66.68;102290.56;5072190;28;20075;-50
2022/07/09 07:41:36;;;;;;;17.77;7.82;;;;;;;19.28;66.19;102289.88;5073293;28;20074;-49
2022/07/09 07:44:03;;;;;;;19.88;7.60;;;;;;;19.13;67.80;102287.06;5072386;28;20074;-52
2022/07/09 07:46:31;;;;;;;21.95;8.90;;;;;;;19.34;66.24;102283.78;5072257;28;20121;-52
2022/07/09 07:48:57;;;;;;;19.75;8.45;;;;;;;19.25;66.84;102284.84;5070584;28;20045;-49
2022/07/09 07:51:24;;;;;;;16.55;7.80;;;;;;;19.31;67.49;102288.69;5072832;28;20052;-51
2022/07/09 07:53:51;;;;;;;15.20;7.00;;;;;;;19.55;66.23;102282.34;5072314;28;20049;-50
2022/07/09 07:56:18;;;;;;;19.15;7.53;;;;;;;19.44;66.61;102285.44;5072474;28;20101;-51
2022/07/09 07:58:44;;;;;;;19.85;7.40;;;;;;;19.62;66.66;102285.19;5072305;28;20521;-50
2022/07/09 08:01:11;;;;;;;18.35;6.63;;;;;;;19.70;64.73;102282.41;5072416;28;20048;-49
2022/07/09 08:03:38;;;;;;;16.02;6.57;;;;;;;19.72;65.06;102288.50;5071697;28;20454;-52
2022/07/09 08:06:07;;;;;;;13.52;5.50;;;;;;;19.97;64.11;102286.50;5072157;28;20047;-49
2022/07/09 08:08:34;;;;;;;13.25;5.60;;;;;;;19.91;64.08;102274.59;5069871;28;20520;-49
2022/07/09 08:11:02;;;;;;;15.05;5.85;;;;;;;19.90;64.16;102266.69;5052122;28;20204;-49
2022/07/09 08:13:29;;;;;;;13.43;4.97;;;;;;;20.12;63.03;102267.72;5052413;28;20053;-51
2022/07/09 08:15:56;;;;;;;13.60;5.00;;;;;;;20.22;62.23;102270.16;5051198;28;20037;-51
2022/07/09 08:18:23;;;;;;;11.40;4.72;;;;;;;20.15;62.08;102267.34;5052348;28;20506;-51
2022/07/09 08:20:51;;;;;;;11.35;4.38;;;;;;;20.16;63.08;102260.94;5051915;28;20052;-49
2022/07/09 08:23:20;;;;;;;10.15;4.15;;;;;;;20.10;62.42;102267.03;5052204;28;20049;-49
2022/07/09 08:25:47;;;;;;;15.40;4.18;;;;;;;20.12;61.27;102268.56;5068271;28;20040;-52
2022/07/09 08:28:14;;;;;;;10.63;3.83;;;;;;;20.28;60.39;102266.72;5072139;28;20044;-52
2022/07/09 08:30:40;;;;;;;9.32;3.30;;;;;;;20.27;60.12;102271.28;5071670;28;20059;-50
2022/07/09 08:33:07;;;;;;;9.05;3.60;;;;;;;20.25;60.48;102261.72;5072182;28;20131;-52
2022/07/09 08:35:37;;;;;;;10.75;3.47;;;;;;;20.37;59.39;102262.94;5071668;28;20044;-52
2022/07/09 08:38:04;;;;;;;9.75;3.55;;;;;;;20.40;59.52;102261.75;5072360;28;20037;-52
2022/07/09 08:40:30;;;;;;;10.65;3.08;;;;;;;20.27;60.21;102257.81;5090736;28;20111;-50
2022/07/09 08:43:01;;;;;;;8.43;3.00;;;;;;;20.53;59.25;102265.47;5095353;28;20072;-48
2022/07/09 08:45:29;;;;;;;7.63;3.20;;;;;;;20.47;60.04;102252.75;5096411;28;20048;-52
2022/07/09 08:47:56;;;;;;;6.43;2.65;;;;;;;20.79;58.70;102255.31;5096225;28;20098;-51
2022/07/09 08:50:24;;;;;;;8.95;2.95;;;;;;;20.91;56.49;102253.84;5089624;28;20513;-52
2022/07/09 08:52:55;;;;;;;12.55;3.00;;;;;;;20.84;57.63;102245.66;5074442;28;20510;-51
2022/07/09 08:55:22;;;;;;;9.32;2.47;;;;;;;20.78;58.47;102234.78;5075902;28;20147;-52
2022/07/09 08:57:50;;;;;;;10.23;3.55;;;;;;;20.96;56.59;102235.25;5075665;28;20037;-50
2022/07/09 09:00:17;;;;;;;6.97;2.90;;;;;;;20.95;56.24;102227.34;5075683;28;20490;-52
2022/07/09 09:02:44;;;;;;;10.02;2.88;;;;;;;21.00;57.59;102219.53;5075778;28;20090;-52
2022/07/09 09:05:14;;;;;;;8.57;2.50;;;;;;;20.99;56.44;102217.84;5075066;28;20040;-49
2022/07/09 09:07:42;;;;;;;11.50;3.63;;;;;;;21.11;57.50;102218.22;5075344;28;20098;-49
2022/07/09 09:10:19;;;;;;;10.73;3.00;;;;;;;21.20;57.00;102212.50;5075831;28;20048;-53
2022/07/09 09:12:46;;;;;;;13.60;3.28;;;;;;;21.26;55.70;102211.75;5075639;28;20044;-49
2022/07/09 09:15:17;;;;;;;9.35;2.90;;;;;;;21.47;55.89;102210.97;5076232;28;20048;-52
2022/07/09 09:17:44;;;;;;;8.57;3.22;;;;;;;21.57;55.30;102202.56;5075351;28;20047;-53
2022/07/09 09:20:15;;;;;;;9.25;2.30;;;;;;;21.63;54.48;102209.09;5075312;28;20047;-50
2022/07/09 09:22:53;;;;;;;8.57;2.67;;;;;;;21.58;54.77;102208.81;5075159;28;20136;-50
2022/07/09 09:25:21;;;;;;;10.43;2.63;;;;;;;21.68;55.68;102198.53;5075022;28;20047;-50
2022/07/09 09:27:57;;;;;;;12.05;2.70;;;;;;;21.97;53.73;102200.25;5090781;28;20048;-53
2022/07/09 09:30:26;;;;;;;7.05;2.45;;;;;;;22.08;53.91;102182.66;5074885;28;20047;-53
2022/07/09 09:32:59;;;;;;;8.25;2.55;;;;;;;22.21;53.38;102187.34;5075192;28;20121;-51
2022/07/09 09:35:27;;;;;;;9.65;2.47;;;;;;;22.43;52.73;102191.72;5075058;28;20055;-52
2022/07/09 09:37:55;;;;;;;13.05;2.92;;;;;;;22.42;53.68;102195.44;5090599;28;20412;-52
2022/07/09 09:40:23;;;;;;;10.98;2.40;;;;;;;22.52;52.17;102192.38;5065455;28;20397;-51
2022/07/09 09:42:52;;;;;;;7.00;2.22;;;;;;;22.56;52.07;102195.53;5075091;28;20087;-52
2022/07/09 09:45:22;;;;;;;7.15;2.15;;;;;;;22.76;50.86;102195.66;5075047;28;20059;-52
2022/07/09 09:47:50;;;;;;;4.53;1.90;;;;;;;22.65;52.33;102199.75;5075058;28;20049;-52
2022/07/09 09:50:21;;;;;;;7.15;2.10;;;;;;;22.53;52.08;102198.63;5074510;28;20131;-53
2022/07/09 09:52:49;;;;;;;4.65;1.70;;;;;;;22.65;50.41;102197.03;5075055;28;20062;-49
2022/07/09 09:55:18;;;;;;;6.15;1.52;;;;;;;22.60;49.82;102192.22;5074656;28;20055;-51
2022/07/09 09:57:45;;;;;;;4.95;1.80;;;;;;;22.46;50.61;102186.94;5073634;28;20045;-51
2022/07/09 10:00:14;;;;;;;4.40;1.70;;;;;;;22.61;49.66;102193.03;5074898;28;20048;-52
2022/07/09 10:02:46;;;;;;;10.73;1.92;;;;;;;22.60;49.50;102181.41;5074703;28;20094;-52
2022/07/09 10:05:13;;;;;;;7.10;1.80;;;;;;;22.67;50.91;102186.84;5072894;28;20444;-51
2022/07/09 10:07:41;;;;;;;6.22;1.95;;;;;;;22.90;51.13;102186.56;5074388;28;20036;-52
2022/07/09 10:10:08;;;;;;;7.72;1.90;;;;;;;23.04;50.93;102171.22;5071204;28;20044;-51
2022/07/09 10:12:37;;;;;;;6.63;2.00;;;;;;;23.46;50.74;102171.97;5054392;28;20041;-50
2022/07/09 10:15:20;;;;;;;6.55;2.00;;;;;;;23.61;48.20;102168.25;5053744;28;20040;-52
2022/07/09 10:17:46;;;;;;;4.43;2.00;;;;;;;23.58;48.75;102164.91;5054356;28;20053;-51
2022/07/09 10:20:13;;;;;;;5.50;2.20;;;;;;;23.62;47.91;102165.34;5053219;28;20049;-52
2022/07/09 10:22:44;;;;;;;8.68;2.00;;;;;;;23.47;47.90;102164.69;5054000;28;20550;-49
2022/07/09 10:25:13;;;;;;;5.03;2.03;;;;;;;23.54;48.81;102160.97;5065345;28;20049;-52
2022/07/09 10:27:46;;;;;;;11.30;2.35;;;;;;;23.38;49.51;102158.63;5074224;28;20047;-51
2022/07/09 10:30:30;;;;;;;5.95;2.10;;;;;;;23.36;49.12;102163.44;5073818;28;20139;-51
2022/07/09 10:33:06;;;;;;;36.45;23.27;;;;;;;23.38;49.20;102164.06;5074716;28;20044;-58
2022/07/09 10:35:51;;;;;;;14.73;7.88;;;;;;;23.30;50.50;102159.66;5073809;28;20045;-59
2022/07/09 10:38:20;;;;;;;18.95;4.18;;;;;;;23.28;52.48;102159.00;5074097;28;20037;-59
2022/07/09 10:40:56;;;;;;;7.95;2.85;;;;;;;23.06;52.62;102158.31;5074028;28;20048;-58
2022/07/09 10:43:48;;;;;;;12.27;3.65;;;;;;;22.91;53.68;102153.03;5073789;28;20075;-59
2022/07/09 10:46:16;;;;;;;7.90;2.78;;;;;;;23.07;51.08;102153.78;5073464;28;20059;-58
2022/07/09 10:48:45;;;;;;;9.38;2.70;;;;;;;22.90;53.21;102137.88;5073843;28;20052;-60
2022/07/09 10:51:20;;;;;;;10.18;2.63;;;;;;;22.89;55.21;102144.31;5072448;28;20433;-58
2022/07/09 10:53:47;;;;;;;6.43;2.22;;;;;;;22.98;51.52;102134.13;5073627;28;20055;-61
2022/07/09 10:56:22;;;;;;;4.72;1.98;;;;;;;23.04;51.15;102137.91;5073680;28;20057;-59
2022/07/09 10:58:50;;;;;;;8.25;2.33;;;;;;;23.23;50.52;102137.16;5072409;28;20509;-60
2022/07/09 11:01:20;;;;;;;7.13;2.28;;;;;;;23.35;52.89;102140.09;5072346;28;20567;-60
2022/07/09 11:03:50;;;;;;;7.32;2.40;;;;;;;23.71;48.72;102133.47;5070159;28;20044;-59
2022/07/09 11:06:17;;;;;;;7.95;2.67;;;;;;;23.71;48.23;102128.06;5072242;28;20138;-59
2022/07/09 11:08:43;;;;;;;8.20;2.60;;;;;;;23.81;50.00;102125.75;5071144;28;20094;-59
2022/07/09 11:11:10;;;;;;;8.45;2.50;;;;;;;23.74;47.77;102133.88;5073961;28;20070;-59
2022/07/09 11:13:37;;;;;;;7.25;2.47;;;;;;;23.65;49.10;102120.72;5071744;28;20060;-59
2022/07/09 11:16:04;;;;;;;8.85;2.47;;;;;;;23.99;49.72;102117.00;5073293;28;20044;-59